sensor_id;sensor_type;location;lat;lon;timestamp;pressure;altitude;pressure_sealevel;temperature;humidity
69570;BME280;56781;42.292;23.146;2022-07-04T00:01:14;95673.56;;;21.38;62.90
69570;BME280;56781;42.292;23.146;2022-07-04T00:03:41;95661.69;;;21.27;61.97
69570;BME280;56781;42.292;23.146;2022-07-04T00:06:08;95665.16;;;21.23;63.19
69570;BME280;56781;42.292;23.146;2022-07-04T00:08:35;95664.44;;;21.27;62.55
69570;BME280;56781;42.292;23.146;2022-07-04T00:11:02;95693.28;;;21.31;63.99
69570;BME280;56781;42.292;23.146;2022-07-04T00:13:30;95659.16;;;21.14;62.66
69570;BME280;56781;42.292;23.146;2022-07-04T00:15:57;95674.47;;;21.22;63.73
69570;BME280;56781;42.292;23.146;2022-07-04T00:18:25;95680.94;;;21.14;65.06
69570;BME280;56781;42.292;23.146;2022-07-04T00:20:52;95649.38;;;21.10;64.63
69570;BME280;56781;42.292;23.146;2022-07-04T00:23:20;95672.13;;;20.75;66.57
69570;BME280;56781;42.292;23.146;2022-07-04T00:25:47;95661.38;;;20.82;67.45
69570;BME280;56781;42.292;23.146;2022-07-04T00:28:16;95646.00;;;20.51;67.98
69570;BME280;56781;42.292;23.146;2022-07-04T00:30:47;95678.63;;;20.70;68.83
69570;BME280;56781;42.292;23.146;2022-07-04T00:33:16;95658.19;;;20.57;68.00
69570;BME280;56781;42.292;23.146;2022-07-04T00:35:47;95675.91;;;20.70;67.69
69570;BME280;56781;42.292;23.146;2022-07-04T00:38:15;95652.16;;;20.48;67.59
69570;BME280;56781;42.292;23.146;2022-07-04T00:40:46;95660.38;;;20.51;68.03
69570;BME280;56781;42.292;23.146;2022-07-04T00:43:21;95681.44;;;20.35;69.39
69570;BME280;56781;42.292;23.146;2022-07-04T00:45:50;95677.00;;;20.27;69.03
69570;BME280;56781;42.292;23.146;2022-07-04T00:48:20;95666.50;;;20.25;68.58
69570;BME280;56781;42.292;23.146;2022-07-04T00:50:48;95676.59;;;20.44;67.83
69570;BME280;56781;42.292;23.146;2022-07-04T00:53:17;95639.47;;;20.13;68.29
69570;BME280;56781;42.292;23.146;2022-07-04T00:55:45;95658.78;;;20.08;68.33
69570;BME280;56781;42.292;23.146;2022-07-04T00:58:21;95653.56;;;19.99;68.82
69570;BME280;56781;42.292;23.146;2022-07-04T01:00:50;95683.41;;;19.80;70.76
69570;BME280;56781;42.292;23.146;2022-07-04T01:03:23;95650.53;;;19.49;70.50
69570;BME280;56781;42.292;23.146;2022-07-04T01:06:09;95661.47;;;19.88;69.39
69570;BME280;56781;42.292;23.146;2022-07-04T01:08:56;95679.66;;;20.04;70.31
69570;BME280;56781;42.292;23.146;2022-07-04T01:11:28;95688.88;;;19.99;69.60
69570;BME280;56781;42.292;23.146;2022-07-04T01:13:58;95692.47;;;20.03;68.58
69570;BME280;56781;42.292;23.146;2022-07-04T01:16:34;95658.47;;;19.58;70.99
69570;BME280;56781;42.292;23.146;2022-07-04T01:19:08;95659.53;;;19.54;70.84
69570;BME280;56781;42.292;23.146;2022-07-04T01:21:45;95660.50;;;19.45;71.52
69570;BME280;56781;42.292;23.146;2022-07-04T01:24:14;95696.31;;;19.67;70.94
69570;BME280;56781;42.292;23.146;2022-07-04T01:26:46;95663.84;;;19.70;70.65
69570;BME280;56781;42.292;23.146;2022-07-04T01:29:19;95694.53;;;19.90;70.89
69570;BME280;56781;42.292;23.146;2022-07-04T01:31:51;95674.84;;;19.78;71.07
69570;BME280;56781;42.292;23.146;2022-07-04T01:34:51;95693.59;;;19.67;71.82
69570;BME280;56781;42.292;23.146;2022-07-04T01:37:30;95695.81;;;19.45;72.37
69570;BME280;56781;42.292;23.146;2022-07-04T01:40:09;95667.59;;;19.50;71.84
69570;BME280;56781;42.292;23.146;2022-07-04T01:42:48;95687.00;;;19.33;72.71
69570;BME280;56781;42.292;23.146;2022-07-04T01:45:19;95655.09;;;19.30;72.26
69570;BME280;56781;42.292;23.146;2022-07-04T01:47:52;95674.97;;;19.49;71.98
69570;BME280;56781;42.292;23.146;2022-07-04T01:50:22;95688.75;;;19.41;72.06
69570;BME280;56781;42.292;23.146;2022-07-04T01:52:52;95667.13;;;19.13;72.69
69570;BME280;56781;42.292;23.146;2022-07-04T01:55:23;95690.22;;;19.38;72.03
69570;BME280;56781;42.292;23.146;2022-07-04T01:57:51;95662.72;;;19.24;71.78
69570;BME280;56781;42.292;23.146;2022-07-04T02:00:20;95697.16;;;19.20;73.52
69570;BME280;56781;42.292;23.146;2022-07-04T02:03:06;95664.59;;;19.04;72.77
69570;BME280;56781;42.292;23.146;2022-07-04T02:05:34;95690.56;;;19.05;74.10
69570;BME280;56781;42.292;23.146;2022-07-04T02:08:05;95661.09;;;18.88;73.54
69570;BME280;56781;42.292;23.146;2022-07-04T02:10:32;95696.88;;;18.93;74.53
69570;BME280;56781;42.292;23.146;2022-07-04T02:13:00;95700.66;;;19.20;74.43
69570;BME280;56781;42.292;23.146;2022-07-04T02:15:33;95651.53;;;18.94;73.33
69570;BME280;56781;42.292;23.146;2022-07-04T02:18:03;95677.25;;;19.16;72.65
69570;BME280;56781;42.292;23.146;2022-07-04T02:20:31;95673.06;;;19.18;72.47
69570;BME280;56781;42.292;23.146;2022-07-04T02:23:03;95715.34;;;19.03;74.34
69570;BME280;56781;42.292;23.146;2022-07-04T02:25:37;95717.88;;;18.96;74.44
69570;BME280;56781;42.292;23.146;2022-07-04T02:28:11;95711.25;;;19.10;73.64
69570;BME280;56781;42.292;23.146;2022-07-04T02:30:50;95668.63;;;18.50;74.65
69570;BME280;56781;42.292;23.146;2022-07-04T02:33:17;95713.41;;;18.88;74.56
69570;BME280;56781;42.292;23.146;2022-07-04T02:35:47;95711.94;;;18.91;74.73
69570;BME280;56781;42.292;23.146;2022-07-04T02:38:21;95716.22;;;18.64;76.11
69570;BME280;56781;42.292;23.146;2022-07-04T02:40:48;95709.84;;;18.84;74.64
69570;BME280;56781;42.292;23.146;2022-07-04T02:43:23;95684.28;;;18.57;74.05
69570;BME280;56781;42.292;23.146;2022-07-04T02:45:50;95688.03;;;18.52;73.12
69570;BME280;56781;42.292;23.146;2022-07-04T02:48:17;95705.34;;;18.48;74.15
69570;BME280;56781;42.292;23.146;2022-07-04T02:50:46;95698.38;;;18.06;75.93
69570;BME280;56781;42.292;23.146;2022-07-04T02:53:13;95670.97;;;17.96;76.28
69570;BME280;56781;42.292;23.146;2022-07-04T02:55:43;95692.88;;;18.31;75.07
69570;BME280;56781;42.292;23.146;2022-07-04T02:58:11;95688.00;;;18.36;75.47
69570;BME280;56781;42.292;23.146;2022-07-04T03:00:44;95722.44;;;18.64;75.47
69570;BME280;56781;42.292;23.146;2022-07-04T03:03:11;95705.78;;;18.22;76.67
69570;BME280;56781;42.292;23.146;2022-07-04T03:05:39;95689.81;;;18.04;76.87
69570;BME280;56781;42.292;23.146;2022-07-04T03:08:06;95687.41;;;18.15;77.44
69570;BME280;56781;42.292;23.146;2022-07-04T03:10:35;95713.38;;;18.44;75.70
69570;BME280;56781;42.292;23.146;2022-07-04T03:13:10;95698.44;;;18.22;77.06
69570;BME280;56781;42.292;23.146;2022-07-04T03:15:38;95723.16;;;18.33;76.72
69570;BME280;56781;42.292;23.146;2022-07-04T03:18:16;95735.59;;;18.22;77.67
69570;BME280;56781;42.292;23.146;2022-07-04T03:20:45;95743.66;;;18.46;76.42
69570;BME280;56781;42.292;23.146;2022-07-04T03:23:13;95711.53;;;18.32;76.53
69570;BME280;56781;42.292;23.146;2022-07-04T03:25:40;95711.84;;;18.31;75.72
69570;BME280;56781;42.292;23.146;2022-07-04T03:28:12;95707.25;;;18.47;76.16
69570;BME280;56781;42.292;23.146;2022-07-04T03:30:39;95744.06;;;18.48;75.67
69570;BME280;56781;42.292;23.146;2022-07-04T03:33:16;95741.66;;;18.31;75.66
69570;BME280;56781;42.292;23.146;2022-07-04T03:35:43;95718.97;;;18.23;74.26
69570;BME280;56781;42.292;23.146;2022-07-04T03:38:16;95746.09;;;18.23;74.96
69570;BME280;56781;42.292;23.146;2022-07-04T03:40:48;95756.44;;;18.33;75.01
69570;BME280;56781;42.292;23.146;2022-07-04T03:43:16;95754.34;;;18.14;75.83
69570;BME280;56781;42.292;23.146;2022-07-04T03:45:57;95723.94;;;17.93;76.28
69570;BME280;56781;42.292;23.146;2022-07-04T03:48:48;95760.41;;;18.36;76.66
69570;BME280;56781;42.292;23.146;2022-07-04T03:51:15;95725.34;;;18.15;75.71
69570;BME280;56781;42.292;23.146;2022-07-04T03:53:42;95760.88;;;18.26;76.85
69570;BME280;56781;42.292;23.146;2022-07-04T03:56:30;95724.75;;;18.50;75.08
69570;BME280;56781;42.292;23.146;2022-07-04T03:58:59;95734.63;;;18.42;76.00
69570;BME280;56781;42.292;23.146;2022-07-04T04:01:29;95751.38;;;18.60;75.85
69570;BME280;56781;42.292;23.146;2022-07-04T04:03:59;95732.81;;;18.46;76.91
69570;BME280;56781;42.292;23.146;2022-07-04T04:06:44;95747.03;;;18.71;76.63
69570;BME280;56781;42.292;23.146;2022-07-04T04:09:12;95722.63;;;18.71;76.07
69570;BME280;56781;42.292;23.146;2022-07-04T04:11:43;95739.50;;;18.93;76.33
69570;BME280;56781;42.292;23.146;2022-07-04T04:14:10;95754.13;;;19.04;76.74
69570;BME280;56781;42.292;23.146;2022-07-04T04:16:39;95717.63;;;18.57;77.67
69570;BME280;56781;42.292;23.146;2022-07-04T04:19:10;95753.94;;;18.81;78.35
69570;BME280;56781;42.292;23.146;2022-07-04T04:21:37;95752.53;;;18.87;78.60
69570;BME280;56781;42.292;23.146;2022-07-04T04:24:04;95757.72;;;19.24;77.38
69570;BME280;56781;42.292;23.146;2022-07-04T04:26:31;95716.13;;;19.04;77.35
69570;BME280;56781;42.292;23.146;2022-07-04T04:29:00;95751.59;;;19.43;77.71
69570;BME280;56781;42.292;23.146;2022-07-04T04:31:28;95719.97;;;19.35;77.39
69570;BME280;56781;42.292;23.146;2022-07-04T04:33:58;95700.53;;;19.48;76.28
69570;BME280;56781;42.292;23.146;2022-07-04T04:36:25;95748.16;;;19.93;75.77
69570;BME280;56781;42.292;23.146;2022-07-04T04:38:53;95729.63;;;19.99;74.50
69570;BME280;56781;42.292;23.146;2022-07-04T04:41:20;95749.91;;;20.21;74.15
69570;BME280;56781;42.292;23.146;2022-07-04T04:43:50;95753.81;;;20.59;72.57
69570;BME280;56781;42.292;23.146;2022-07-04T04:46:20;95728.56;;;20.58;72.76
69570;BME280;56781;42.292;23.146;2022-07-04T04:48:47;95732.03;;;20.78;71.74
69570;BME280;56781;42.292;23.146;2022-07-04T04:51:14;95740.50;;;20.73;71.01
69570;BME280;56781;42.292;23.146;2022-07-04T04:53:44;95740.19;;;22.20;66.90
69570;BME280;56781;42.292;23.146;2022-07-04T04:56:11;95741.22;;;24.75;57.57
69570;BME280;56781;42.292;23.146;2022-07-04T04:58:38;95724.13;;;27.62;49.89
69570;BME280;56781;42.292;23.146;2022-07-04T05:01:08;95732.34;;;28.11;47.18
69570;BME280;56781;42.292;23.146;2022-07-04T05:03:55;95726.53;;;30.06;43.63
69570;BME280;56781;42.292;23.146;2022-07-04T05:06:23;95727.78;;;31.73;39.43
69570;BME280;56781;42.292;23.146;2022-07-04T05:08:50;95727.41;;;32.50;38.12
69570;BME280;56781;42.292;23.146;2022-07-04T05:11:28;95709.78;;;33.24;36.17
69570;BME280;56781;42.292;23.146;2022-07-04T05:13:56;95703.66;;;33.54;33.84
69570;BME280;56781;42.292;23.146;2022-07-04T05:16:24;95687.44;;;32.89;35.10
69570;BME280;56781;42.292;23.146;2022-07-04T05:18:51;95712.66;;;33.33;34.90
69570;BME280;56781;42.292;23.146;2022-07-04T05:21:18;95708.97;;;32.85;35.60
69570;BME280;56781;42.292;23.146;2022-07-04T05:23:45;95700.13;;;33.28;34.44
69570;BME280;56781;42.292;23.146;2022-07-04T05:26:14;95685.06;;;32.33;35.63
69570;BME280;56781;42.292;23.146;2022-07-04T05:28:41;95675.50;;;33.91;33.44
69570;BME280;56781;42.292;23.146;2022-07-04T05:31:08;95709.72;;;34.23;32.56
69570;BME280;56781;42.292;23.146;2022-07-04T05:33:55;95704.66;;;34.65;31.67
69570;BME280;56781;42.292;23.146;2022-07-04T05:36:23;95683.16;;;33.01;33.68
69570;BME280;56781;42.292;23.146;2022-07-04T06:21:15;95704.22;;;24.23;60.73
69570;BME280;56781;42.292;23.146;2022-07-04T06:23:42;95716.97;;;26.24;83.70
69570;BME280;56781;42.292;23.146;2022-07-04T06:26:09;95676.97;;;26.27;53.34
69570;BME280;56781;42.292;23.146;2022-07-04T06:28:36;95681.78;;;25.80;53.38
69570;BME280;56781;42.292;23.146;2022-07-04T06:31:14;95668.09;;;25.87;53.70
69570;BME280;56781;42.292;23.146;2022-07-04T06:33:42;95688.03;;;26.05;53.47
69570;BME280;56781;42.292;23.146;2022-07-04T06:36:28;95657.44;;;26.11;52.40
69570;BME280;56781;42.292;23.146;2022-07-04T06:38:56;95657.38;;;26.28;52.32
69570;BME280;56781;42.292;23.146;2022-07-04T06:41:23;95663.31;;;26.20;53.61
69570;BME280;56781;42.292;23.146;2022-07-04T06:43:50;95662.69;;;26.68;52.95
69570;BME280;56781;42.292;23.146;2022-07-04T06:46:17;95644.63;;;26.74;52.13
69570;BME280;56781;42.292;23.146;2022-07-04T06:48:44;95654.78;;;26.81;51.88
69570;BME280;56781;42.292;23.146;2022-07-04T06:51:11;95655.13;;;26.86;51.36
69570;BME280;56781;42.292;23.146;2022-07-04T06:53:41;95649.66;;;26.83;51.58
69570;BME280;56781;42.292;23.146;2022-07-04T06:56:08;95653.47;;;27.00;51.23
69570;BME280;56781;42.292;23.146;2022-07-04T06:58:35;95669.72;;;27.39;51.01
69570;BME280;56781;42.292;23.146;2022-07-04T07:01:02;95642.81;;;27.09;52.78
69570;BME280;56781;42.292;23.146;2022-07-04T07:03:29;95649.31;;;27.36;50.37
69570;BME280;56781;42.292;23.146;2022-07-04T07:05:57;95630.16;;;27.67;50.42
69570;BME280;56781;42.292;23.146;2022-07-04T07:08:27;95631.44;;;27.97;50.06
69570;BME280;56781;42.292;23.146;2022-07-04T07:10:55;95645.72;;;28.19;48.80
69570;BME280;56781;42.292;23.146;2022-07-04T07:13:23;95656.41;;;28.13;49.29
69570;BME280;56781;42.292;23.146;2022-07-04T07:15:50;95639.19;;;28.40;47.33
69570;BME280;56781;42.292;23.146;2022-07-04T07:18:17;95644.31;;;28.38;48.92
69570;BME280;56781;42.292;23.146;2022-07-04T07:20:44;95607.19;;;28.19;47.85
69570;BME280;56781;42.292;23.146;2022-07-04T07:23:11;95634.44;;;28.44;48.61
69570;BME280;56781;42.292;23.146;2022-07-04T07:25:39;95592.97;;;28.55;47.63
69570;BME280;56781;42.292;23.146;2022-07-04T07:28:06;95609.94;;;28.53;48.10
69570;BME280;56781;42.292;23.146;2022-07-04T07:30:33;95592.44;;;28.63;48.86
69570;BME280;56781;42.292;23.146;2022-07-04T07:33:00;95597.06;;;28.97;45.07
69570;BME280;56781;42.292;23.146;2022-07-04T07:35:27;95628.25;;;28.90;46.61
69570;BME280;56781;42.292;23.146;2022-07-04T07:37:54;95603.75;;;28.72;46.47
69570;BME280;56781;42.292;23.146;2022-07-04T07:40:22;95609.34;;;28.92;47.25
69570;BME280;56781;42.292;23.146;2022-07-04T07:42:49;95608.16;;;29.21;46.76
69570;BME280;56781;42.292;23.146;2022-07-04T07:45:17;95589.09;;;29.03;48.28
69570;BME280;56781;42.292;23.146;2022-07-04T07:47:44;95597.75;;;29.28;47.25
69570;BME280;56781;42.292;23.146;2022-07-04T07:50:11;95625.84;;;29.90;45.87
69570;BME280;56781;42.292;23.146;2022-07-04T07:52:39;95630.25;;;30.08;46.15
69570;BME280;56781;42.292;23.146;2022-07-04T07:55:06;95627.19;;;30.22;46.65
69570;BME280;56781;42.292;23.146;2022-07-04T07:57:33;95583.00;;;30.02;44.56
69570;BME280;56781;42.292;23.146;2022-07-04T08:00:01;95597.75;;;30.35;44.48
69570;BME280;56781;42.292;23.146;2022-07-04T08:02:28;95552.00;;;30.14;42.83
69570;BME280;56781;42.292;23.146;2022-07-04T08:05:14;95582.44;;;30.67;43.51
69570;BME280;56781;42.292;23.146;2022-07-04T08:07:41;95588.28;;;30.53;41.72
69570;BME280;56781;42.292;23.146;2022-07-04T08:10:08;95588.63;;;30.55;42.46
69570;BME280;56781;42.292;23.146;2022-07-04T08:12:36;95566.06;;;30.92;41.75
69570;BME280;56781;42.292;23.146;2022-07-04T08:15:04;95563.13;;;31.32;41.07
69570;BME280;56781;42.292;23.146;2022-07-04T08:17:34;95564.84;;;30.94;41.20
69570;BME280;56781;42.292;23.146;2022-07-04T08:20:03;95527.50;;;31.18;42.42
69570;BME280;56781;42.292;23.146;2022-07-04T08:22:31;95528.78;;;31.30;41.60
69570;BME280;56781;42.292;23.146;2022-07-04T08:24:58;95529.63;;;31.27;42.11
69570;BME280;56781;42.292;23.146;2022-07-04T08:27:25;95518.88;;;31.16;40.97
69570;BME280;56781;42.292;23.146;2022-07-04T08:29:59;95516.59;;;31.44;37.93
69570;BME280;56781;42.292;23.146;2022-07-04T08:32:26;95517.47;;;31.24;35.71
69570;BME280;56781;42.292;23.146;2022-07-04T08:34:54;95540.72;;;31.72;35.40
69570;BME280;56781;42.292;23.146;2022-07-04T08:37:24;95547.06;;;31.56;37.10
69570;BME280;56781;42.292;23.146;2022-07-04T08:39:51;95540.19;;;31.77;38.59
69570;BME280;56781;42.292;23.146;2022-07-04T08:42:20;95514.00;;;31.66;35.99
69570;BME280;56781;42.292;23.146;2022-07-04T08:44:52;95526.88;;;31.72;38.12
69570;BME280;56781;42.292;23.146;2022-07-04T08:47:22;95554.75;;;31.94;36.50
69570;BME280;56781;42.292;23.146;2022-07-04T08:52:36;95560.84;;;31.73;35.38
69570;BME280;56781;42.292;23.146;2022-07-04T08:55:07;95521.19;;;31.18;34.51
69570;BME280;56781;42.292;23.146;2022-07-04T08:57:54;95548.06;;;31.50;35.10
69570;BME280;56781;42.292;23.146;2022-07-04T09:00:41;95553.97;;;31.65;35.41
69570;BME280;56781;42.292;23.146;2022-07-04T09:03:09;95562.13;;;31.55;35.58
69570;BME280;56781;42.292;23.146;2022-07-04T09:05:36;95544.94;;;31.48;35.40
69570;BME280;56781;42.292;23.146;2022-07-04T09:08:04;95500.19;;;31.37;35.67
69570;BME280;56781;42.292;23.146;2022-07-04T09:10:32;95525.22;;;31.46;35.66
69570;BME280;56781;42.292;23.146;2022-07-04T09:13:04;95506.53;;;31.50;36.82
69570;BME280;56781;42.292;23.146;2022-07-04T09:15:38;95495.31;;;31.70;36.44
69570;BME280;56781;42.292;23.146;2022-07-04T09:18:05;95528.03;;;31.88;36.18
69570;BME280;56781;42.292;23.146;2022-07-04T09:20:33;95527.91;;;31.78;35.26
69570;BME280;56781;42.292;23.146;2022-07-04T09:23:16;95528.53;;;31.99;37.23
69570;BME280;56781;42.292;23.146;2022-07-04T09:25:45;95527.41;;;31.67;35.66
69570;BME280;56781;42.292;23.146;2022-07-04T09:28:25;95529.50;;;31.63;34.45
69570;BME280;56781;42.292;23.146;2022-07-04T09:30:54;95498.34;;;31.46;33.85
69570;BME280;56781;42.292;23.146;2022-07-04T09:33:22;95521.63;;;31.62;34.99
69570;BME280;56781;42.292;23.146;2022-07-04T09:35:50;95549.53;;;31.67;35.47
69570;BME280;56781;42.292;23.146;2022-07-04T09:38:23;95506.00;;;31.55;34.85
69570;BME280;56781;42.292;23.146;2022-07-04T09:40:52;95503.19;;;31.42;34.65
69570;BME280;56781;42.292;23.146;2022-07-04T09:43:58;95515.22;;;31.65;35.11
69570;BME280;56781;42.292;23.146;2022-07-04T09:46:25;95518.91;;;31.45;33.84
69570;BME280;56781;42.292;23.146;2022-07-04T09:48:53;95543.81;;;31.74;35.33
69570;BME280;56781;42.292;23.146;2022-07-04T09:51:47;95483.66;;;31.33;32.97
69570;BME280;56781;42.292;23.146;2022-07-04T09:54:33;95523.44;;;31.68;33.94
69570;BME280;56781;42.292;23.146;2022-07-04T09:57:02;95478.88;;;31.33;34.16
69570;BME280;56781;42.292;23.146;2022-07-04T09:59:30;95494.91;;;31.26;33.44
69570;BME280;56781;42.292;23.146;2022-07-04T10:02:09;95480.94;;;31.17;32.38
69570;BME280;56781;42.292;23.146;2022-07-04T10:07:33;95510.88;;;31.34;32.51
69570;BME280;56781;42.292;23.146;2022-07-04T10:10:30;95512.72;;;31.25;33.37
69570;BME280;56781;42.292;23.146;2022-07-04T10:13:05;95519.13;;;31.38;32.77
69570;BME280;56781;42.292;23.146;2022-07-04T10:15:36;95525.03;;;31.53;33.57
69570;BME280;56781;42.292;23.146;2022-07-04T10:18:05;95534.31;;;31.46;33.79
69570;BME280;56781;42.292;23.146;2022-07-04T10:20:33;95548.34;;;31.68;32.58
69570;BME280;56781;42.292;23.146;2022-07-04T10:23:01;95529.97;;;31.45;34.03
69570;BME280;56781;42.292;23.146;2022-07-04T10:25:28;95530.38;;;31.60;32.67
69570;BME280;56781;42.292;23.146;2022-07-04T10:27:56;95552.03;;;31.78;33.02
69570;BME280;56781;42.292;23.146;2022-07-04T10:30:28;95546.59;;;31.74;33.03
69570;BME280;56781;42.292;23.146;2022-07-04T10:32:59;95542.00;;;31.55;31.72
69570;BME280;56781;42.292;23.146;2022-07-04T10:38:18;95553.88;;;31.68;32.18
69570;BME280;56781;42.292;23.146;2022-07-04T10:40:52;95527.44;;;31.51;32.52
69570;BME280;56781;42.292;23.146;2022-07-04T10:48:29;95544.75;;;31.55;31.42
69570;BME280;56781;42.292;23.146;2022-07-04T10:51:04;95543.41;;;31.76;32.37
69570;BME280;56781;42.292;23.146;2022-07-04T10:53:48;95511.13;;;31.69;32.96
69570;BME280;56781;42.292;23.146;2022-07-04T10:58:50;95523.69;;;31.28;32.24
69570;BME280;56781;42.292;23.146;2022-07-04T11:01:17;95498.59;;;31.35;33.75
69570;BME280;56781;42.292;23.146;2022-07-04T11:03:51;95546.69;;;31.71;32.07
69570;BME280;56781;42.292;23.146;2022-07-04T11:11:59;95527.91;;;31.78;31.58
69570;BME280;56781;42.292;23.146;2022-07-04T11:14:43;95517.16;;;31.80;32.77
69570;BME280;56781;42.292;23.146;2022-07-04T11:17:21;95521.50;;;31.52;32.15
69570;BME280;56781;42.292;23.146;2022-07-04T11:20:00;95529.69;;;31.56;33.32
69570;BME280;56781;42.292;23.146;2022-07-04T11:22:27;95518.22;;;31.70;32.55
69570;BME280;56781;42.292;23.146;2022-07-04T11:24:54;95499.59;;;31.58;33.85
69570;BME280;56781;42.292;23.146;2022-07-04T11:27:22;95516.19;;;31.58;33.80
69570;BME280;56781;42.292;23.146;2022-07-04T11:29:53;95526.03;;;31.59;34.27
69570;BME280;56781;42.292;23.146;2022-07-04T11:32:20;95514.19;;;31.58;32.46
69570;BME280;56781;42.292;23.146;2022-07-04T11:34:48;95491.16;;;31.49;33.85
69570;BME280;56781;42.292;23.146;2022-07-04T11:37:15;95501.72;;;31.67;33.93
69570;BME280;56781;42.292;23.146;2022-07-04T11:39:42;95496.06;;;31.70;34.95
69570;BME280;56781;42.292;23.146;2022-07-04T11:42:09;95503.66;;;31.83;33.21
69570;BME280;56781;42.292;23.146;2022-07-04T11:45:21;95498.81;;;31.57;32.60
69570;BME280;56781;42.292;23.146;2022-07-04T11:47:48;95514.06;;;31.78;33.97
69570;BME280;56781;42.292;23.146;2022-07-04T11:50:16;95512.22;;;31.59;33.56
69570;BME280;56781;42.292;23.146;2022-07-04T11:52:46;95499.94;;;31.73;32.98
69570;BME280;56781;42.292;23.146;2022-07-04T11:55:34;95456.63;;;31.53;33.57
69570;BME280;56781;42.292;23.146;2022-07-04T11:58:01;95468.81;;;31.56;35.61
69570;BME280;56781;42.292;23.146;2022-07-04T12:00:29;95441.78;;;31.47;34.14
69570;BME280;56781;42.292;23.146;2022-07-04T12:03:01;95433.38;;;31.51;33.29
69570;BME280;56781;42.292;23.146;2022-07-04T12:05:29;95484.03;;;31.77;34.38
69570;BME280;56781;42.292;23.146;2022-07-04T12:07:56;95446.34;;;31.67;34.32
69570;BME280;56781;42.292;23.146;2022-07-04T12:10:43;95469.69;;;32.08;33.75
69570;BME280;56781;42.292;23.146;2022-07-04T12:13:15;95440.72;;;31.83;34.71
69570;BME280;56781;42.292;23.146;2022-07-04T12:15:51;95456.84;;;32.01;34.84
69570;BME280;56781;42.292;23.146;2022-07-04T12:18:25;95420.06;;;31.46;33.98
69570;BME280;56781;42.292;23.146;2022-07-04T12:20:55;95454.84;;;32.01;33.84
69570;BME280;56781;42.292;23.146;2022-07-04T12:23:38;95445.78;;;32.14;34.30
69570;BME280;56781;42.292;23.146;2022-07-04T12:26:26;95423.56;;;31.88;34.97
69570;BME280;56781;42.292;23.146;2022-07-04T12:28:55;95444.53;;;32.02;33.88
69570;BME280;56781;42.292;23.146;2022-07-04T12:31:40;95409.06;;;31.84;32.64
69570;BME280;56781;42.292;23.146;2022-07-04T12:34:17;95433.75;;;31.91;32.50
69570;BME280;56781;42.292;23.146;2022-07-04T12:36:55;95443.72;;;31.89;32.07
69570;BME280;56781;42.292;23.146;2022-07-04T12:39:32;95437.06;;;31.86;33.34
69570;BME280;56781;42.292;23.146;2022-07-04T12:42:05;95453.69;;;31.86;32.15
69570;BME280;56781;42.292;23.146;2022-07-04T12:44:32;95419.25;;;31.74;31.71
69570;BME280;56781;42.292;23.146;2022-07-04T12:46:59;95439.53;;;31.84;32.55
69570;BME280;56781;42.292;23.146;2022-07-04T12:49:47;95446.13;;;32.03;32.50
69570;BME280;56781;42.292;23.146;2022-07-04T12:52:16;95436.31;;;31.86;31.61
69570;BME280;56781;42.292;23.146;2022-07-04T12:54:44;95444.38;;;31.80;32.46
69570;BME280;56781;42.292;23.146;2022-07-04T12:57:15;95400.38;;;31.56;33.19
69570;BME280;56781;42.292;23.146;2022-07-04T12:59:44;95432.22;;;31.90;32.43
69570;BME280;56781;42.292;23.146;2022-07-04T13:02:13;95431.44;;;31.90;33.92
69570;BME280;56781;42.292;23.146;2022-07-04T13:04:41;95412.25;;;31.57;32.24
69570;BME280;56781;42.292;23.146;2022-07-04T13:07:13;95426.56;;;31.68;33.99
69570;BME280;56781;42.292;23.146;2022-07-04T13:09:42;95404.63;;;31.74;33.75
69570;BME280;56781;42.292;23.146;2022-07-04T13:12:10;95422.84;;;32.00;32.50
69570;BME280;56781;42.292;23.146;2022-07-04T13:14:56;95400.31;;;31.86;32.92
69570;BME280;56781;42.292;23.146;2022-07-04T13:17:24;95401.09;;;31.73;33.34
69570;BME280;56781;42.292;23.146;2022-07-04T13:19:52;95394.56;;;31.80;34.13
69570;BME280;56781;42.292;23.146;2022-07-04T13:22:20;95379.59;;;31.77;33.71
69570;BME280;56781;42.292;23.146;2022-07-04T13:24:49;95378.94;;;31.73;33.22
69570;BME280;56781;42.292;23.146;2022-07-04T13:27:17;95396.41;;;31.70;33.54
69570;BME280;56781;42.292;23.146;2022-07-04T13:29:45;95410.28;;;31.83;32.94
69570;BME280;56781;42.292;23.146;2022-07-04T13:32:12;95400.66;;;31.88;35.19
69570;BME280;56781;42.292;23.146;2022-07-04T13:34:39;95369.50;;;31.84;33.85
69570;BME280;56781;42.292;23.146;2022-07-04T13:37:06;95382.25;;;31.68;33.54
69570;BME280;56781;42.292;23.146;2022-07-04T13:39:33;95365.97;;;31.57;35.08
69570;BME280;56781;42.292;23.146;2022-07-04T13:42:18;95389.69;;;31.71;34.53
69570;BME280;56781;42.292;23.146;2022-07-04T13:45:07;95352.66;;;31.40;35.41
69570;BME280;56781;42.292;23.146;2022-07-04T13:47:34;95387.47;;;31.66;34.37
69570;BME280;56781;42.292;23.146;2022-07-04T13:50:02;95358.22;;;31.52;34.77
69570;BME280;56781;42.292;23.146;2022-07-04T13:52:29;95379.59;;;31.77;34.65
69570;BME280;56781;42.292;23.146;2022-07-04T13:54:56;95385.34;;;31.70;34.04
69570;BME280;56781;42.292;23.146;2022-07-04T13:57:23;95378.47;;;31.62;34.62
69570;BME280;56781;42.292;23.146;2022-07-04T13:59:50;95346.44;;;31.35;33.62
69570;BME280;56781;42.292;23.146;2022-07-04T14:02:17;95326.69;;;31.21;35.36
69570;BME280;56781;42.292;23.146;2022-07-04T14:04:44;95357.66;;;31.45;35.50
69570;BME280;56781;42.292;23.146;2022-07-04T14:07:12;95350.47;;;31.18;33.89
69570;BME280;56781;42.292;23.146;2022-07-04T14:09:45;95375.47;;;31.44;36.10
69570;BME280;56781;42.292;23.146;2022-07-04T14:12:12;95361.25;;;31.29;34.44
69570;BME280;56781;42.292;23.146;2022-07-04T14:14:39;95357.84;;;31.38;35.23